createdAt,value
2019-03-16T00:02:00.132Z,16.07
2019-03-16T00:04:27.183Z,14.95
2019-03-16T00:06:54.175Z,21.45
2019-03-16T00:09:21.174Z,23.73
2019-03-16T00:11:48.405Z,17.27
2019-03-16T00:14:16.682Z,17.98
2019-03-16T00:16:43.767Z,17.77
2019-03-16T00:19:10.860Z,19.92
2019-03-16T00:21:37.941Z,16.23
2019-03-16T00:24:05.102Z,13.83
2019-03-16T00:26:32.045Z,15.60
2019-03-16T00:28:59.090Z,23.02
2019-03-16T00:31:26.359Z,20.20
2019-03-16T00:33:53.590Z,16.93
2019-03-16T00:36:20.744Z,20.40
2019-03-16T00:38:47.751Z,22.42
2019-03-16T00:41:15.860Z,18.52
2019-03-16T00:43:42.837Z,13.45
2019-03-16T00:46:10.264Z,17.48
2019-03-16T00:48:37.583Z,17.20
2019-03-16T00:51:04.570Z,19.98
2019-03-16T00:53:31.644Z,16.12
2019-03-16T00:55:58.630Z,20.57
2019-03-16T00:58:26.256Z,21.40
2019-03-16T01:00:53.507Z,15.70
2019-03-16T01:03:20.830Z,17.80
2019-03-16T01:05:47.810Z,18.50
2019-03-16T01:08:14.886Z,21.82
2019-03-16T01:10:42.201Z,19.50
2019-03-16T01:13:09.630Z,22.15
2019-03-16T01:15:37.087Z,15.98
2019-03-16T01:18:04.257Z,15.13
2019-03-16T01:20:31.655Z,18.77
2019-03-16T01:22:58.844Z,18.75
2019-03-16T01:25:25.833Z,20.52
2019-03-16T01:27:53.042Z,20.15
2019-03-16T01:30:20.120Z,18.23
2019-03-16T01:32:47.438Z,20.12
2019-03-16T01:35:14.916Z,12.93
2019-03-16T01:37:42.265Z,21.52
2019-03-16T01:40:09.492Z,15.05
2019-03-16T01:42:37.077Z,14.43
2019-03-16T01:45:04.449Z,15.85
2019-03-16T01:47:31.442Z,19.62
2019-03-16T01:49:58.491Z,16.97
2019-03-16T01:52:25.509Z,21.05
2019-03-16T01:54:52.835Z,16.02
2019-03-16T01:57:20.191Z,14.95
2019-03-16T01:59:47.511Z,16.67
2019-03-16T02:02:15.106Z,17.65
2019-03-16T02:04:42.071Z,14.50
2019-03-16T02:07:10.174Z,14.73
2019-03-16T02:09:37.274Z,16.35
2019-03-16T02:12:04.442Z,19.57
2019-03-16T02:14:31.411Z,16.25
2019-03-16T02:16:58.739Z,20.17
2019-03-16T02:19:25.738Z,20.08
2019-03-16T02:21:52.923Z,14.33
2019-03-16T02:24:20.345Z,20.75
2019-03-16T02:26:47.431Z,17.55
2019-03-16T02:29:14.426Z,20.70
2019-03-16T02:31:41.433Z,18.52
2019-03-16T02:34:08.778Z,17.90
2019-03-16T02:36:37.638Z,18.17
2019-03-16T02:39:05.439Z,26.00
2019-03-16T02:41:32.477Z,19.23
2019-03-16T02:43:59.805Z,17.30
2019-03-16T02:46:27.171Z,20.17
2019-03-16T02:48:54.259Z,20.72
2019-03-16T02:51:21.604Z,19.00
2019-03-16T02:53:48.686Z,16.82
2019-03-16T02:56:16.041Z,16.25
2019-03-16T02:58:43.083Z,19.25
2019-03-16T03:01:10.168Z,21.02
2019-03-16T03:03:37.286Z,17.07
2019-03-16T03:06:04.439Z,17.50
2019-03-16T03:08:31.522Z,16.10
2019-03-16T03:10:58.660Z,17.05
2019-03-16T03:13:25.723Z,16.62
2019-03-16T03:15:52.803Z,21.87
2019-03-16T03:18:19.788Z,14.13
2019-03-16T03:20:46.795Z,23.85
2019-03-16T03:23:14.101Z,11.65
2019-03-16T03:25:41.171Z,15.53
2019-03-16T03:28:08.454Z,18.70
2019-03-16T03:30:35.639Z,20.23
2019-03-16T03:33:03.077Z,20.30
2019-03-16T03:35:30.452Z,21.37
2019-03-16T03:37:58.562Z,19.27
2019-03-16T03:40:25.586Z,23.83
2019-03-16T03:42:52.669Z,20.45
2019-03-16T03:45:19.917Z,17.40
2019-03-16T03:47:46.884Z,22.07
2019-03-16T03:50:14.023Z,19.20
2019-03-16T03:52:41.463Z,23.95
2019-03-16T03:55:09.030Z,19.32
2019-03-16T03:57:37.536Z,14.53
2019-03-16T04:00:05.495Z,21.73
2019-03-16T04:02:32.953Z,17.95
2019-03-16T04:05:00.487Z,11.75
2019-03-16T04:07:28.196Z,20.82
2019-03-16T04:09:55.268Z,17.48
2019-03-16T04:12:22.696Z,16.40
2019-03-16T04:14:50.083Z,17.73
2019-03-16T04:17:17.109Z,24.67
2019-03-16T04:19:44.132Z,20.97
2019-03-16T04:22:11.402Z,16.77
2019-03-16T04:24:38.611Z,21.65
2019-03-16T04:27:15.787Z,21.27
2019-03-16T04:29:34.859Z,19.95
2019-03-16T04:32:02.130Z,16.10
2019-03-16T04:34:29.986Z,17.52
2019-03-16T04:36:57.510Z,15.08
2019-03-16T04:39:24.531Z,15.35
2019-03-16T04:41:51.519Z,23.60
2019-03-16T04:44:18.655Z,16.50
2019-03-16T04:46:46.039Z,16.52
2019-03-16T04:49:13.332Z,13.53
2019-03-16T04:51:40.359Z,18.57
2019-03-16T04:54:07.562Z,15.93
2019-03-16T04:56:34.575Z,15.50
2019-03-16T04:59:01.972Z,17.25
2019-03-16T05:01:29.066Z,21.65
2019-03-16T05:03:56.494Z,15.63
2019-03-16T05:06:23.554Z,17.60
2019-03-16T05:08:51.275Z,17.87
2019-03-16T05:11:18.575Z,12.88
2019-03-16T05:13:45.568Z,16.95
2019-03-16T05:16:14.214Z,15.98
2019-03-16T05:18:41.314Z,20.92
2019-03-16T05:21:08.276Z,17.17
2019-03-16T05:23:36.418Z,18.55
2019-03-16T05:26:03.855Z,17.60
2019-03-16T05:28:31.433Z,20.02
2019-03-16T05:30:58.391Z,21.35
2019-03-16T05:33:25.846Z,15.00
2019-03-16T05:35:52.949Z,17.73
2019-03-16T05:38:19.935Z,18.98
2019-03-16T05:40:46.972Z,18.12
2019-03-16T05:43:14.043Z,18.87
2019-03-16T05:45:41.418Z,17.02
2019-03-16T05:48:09.857Z,15.83
2019-03-16T05:50:36.867Z,14.23
2019-03-16T05:53:04.082Z,17.60
2019-03-16T05:55:31.078Z,21.17
2019-03-16T05:57:58.183Z,15.85
2019-03-16T06:00:25.170Z,17.52
2019-03-16T06:02:52.297Z,20.10
2019-03-16T06:05:19.387Z,12.85
2019-03-16T06:07:46.364Z,22.22
2019-03-16T06:10:13.522Z,19.95
2019-03-16T06:12:40.502Z,17.62
2019-03-16T06:15:07.898Z,13.85
2019-03-16T06:17:34.961Z,20.02
2019-03-16T06:20:02.520Z,22.60
2019-03-16T06:22:29.870Z,15.40
2019-03-16T06:24:56.945Z,14.60
2019-03-16T06:27:24.373Z,20.50
2019-03-16T06:29:51.372Z,18.50
2019-03-16T06:32:19.484Z,13.28
2019-03-16T06:34:46.788Z,17.92
2019-03-16T06:37:13.778Z,18.15
2019-03-16T06:39:40.923Z,11.68
2019-03-16T06:42:07.907Z,14.40
2019-03-16T06:44:35.211Z,24.50
2019-03-16T06:47:03.469Z,14.45
2019-03-16T06:49:30.457Z,14.87
2019-03-16T06:51:57.471Z,21.95
2019-03-16T06:54:24.977Z,22.85
2019-03-16T06:56:52.108Z,18.98
2019-03-16T06:59:19.420Z,16.12
2019-03-16T07:01:46.505Z,24.75
2019-03-16T07:04:13.659Z,15.60
2019-03-16T07:06:40.842Z,12.55
2019-03-16T07:09:08.297Z,12.85
2019-03-16T07:11:36.632Z,17.57
2019-03-16T07:14:03.919Z,13.22
2019-03-16T07:16:31.441Z,13.68
2019-03-16T07:18:59.258Z,11.03
2019-03-16T07:21:26.730Z,14.80
2019-03-16T07:23:54.184Z,13.40
2019-03-16T07:26:21.862Z,10.72
2019-03-16T07:28:49.013Z,17.35
2019-03-16T07:31:16.106Z,13.83
2019-03-16T07:33:43.204Z,12.07
2019-03-16T07:36:10.564Z,14.43
2019-03-16T07:38:37.590Z,12.40
2019-03-16T07:41:04.699Z,13.30
2019-03-16T07:43:32.087Z,12.53
2019-03-16T07:45:59.108Z,11.50
2019-03-16T07:48:26.465Z,13.30
2019-03-16T07:50:53.838Z,15.38
2019-03-16T07:53:20.971Z,15.72
2019-03-16T07:55:48.345Z,18.15
2019-03-16T07:58:15.463Z,9.63
2019-03-16T08:00:43.170Z,16.77
2019-03-16T08:03:10.231Z,15.45
2019-03-16T08:05:37.335Z,14.25
2019-03-16T08:08:04.618Z,8.85
2019-03-16T08:10:31.685Z,13.22
2019-03-16T08:12:59.127Z,14.35
2019-03-16T08:15:28.107Z,14.50
2019-03-16T08:17:55.787Z,15.38
2019-03-16T08:20:22.904Z,9.98
2019-03-16T08:22:50.031Z,18.62
2019-03-16T08:25:17.207Z,13.22
2019-03-16T08:27:54.010Z,12.33
2019-03-16T08:30:13.480Z,13.35
2019-03-16T08:32:41.041Z,8.60
2019-03-16T08:35:08.377Z,12.10
2019-03-16T08:37:35.747Z,20.62
2019-03-16T08:40:03.291Z,13.98
2019-03-16T08:42:30.379Z,18.23
2019-03-16T08:44:57.415Z,14.73
2019-03-16T08:47:24.774Z,18.07
2019-03-16T08:49:52.109Z,15.95
2019-03-16T08:52:19.143Z,12.45
2019-03-16T08:54:46.592Z,13.68
2019-03-16T08:57:13.895Z,16.87
2019-03-16T08:59:40.890Z,9.08
2019-03-16T09:02:07.934Z,14.43
2019-03-16T09:04:34.922Z,15.18
2019-03-16T09:07:02.055Z,14.98
2019-03-16T09:09:29.136Z,14.35
2019-03-16T09:11:58.335Z,12.03
2019-03-16T09:14:25.003Z,9.28
2019-03-16T09:16:52.091Z,13.35
2019-03-16T09:19:19.095Z,14.43
2019-03-16T09:21:46.359Z,12.18
2019-03-16T09:24:13.352Z,9.38
2019-03-16T09:26:40.467Z,9.80
2019-03-16T09:29:14.772Z,14.20
2019-03-16T09:31:36.442Z,7.05
2019-03-16T09:34:03.525Z,12.65
2019-03-16T09:36:30.625Z,10.68
2019-03-16T09:38:57.619Z,9.75
2019-03-16T09:41:25.035Z,12.25
2019-03-16T09:43:52.084Z,10.72
2019-03-16T09:46:19.091Z,6.45
2019-03-16T09:48:46.153Z,6.65
2019-03-16T09:51:13.852Z,9.03
2019-03-16T09:53:41.154Z,8.63
2019-03-16T09:56:08.181Z,11.00
2019-03-16T09:58:35.230Z,11.53
2019-03-16T10:01:02.426Z,7.85
2019-03-16T10:03:30.925Z,7.87
2019-03-16T10:05:58.028Z,9.50
2019-03-16T10:08:25.731Z,8.05
2019-03-16T10:10:52.851Z,8.65
2019-03-16T10:13:20.485Z,9.68
2019-03-16T10:15:47.930Z,9.95
2019-03-16T10:18:15.322Z,8.65
2019-03-16T10:20:42.339Z,7.42
2019-03-16T10:23:09.391Z,6.72
2019-03-16T10:25:36.503Z,6.20
2019-03-16T10:28:04.051Z,6.10
2019-03-16T10:30:31.049Z,5.72
2019-03-16T10:32:58.042Z,4.42
2019-03-16T10:35:25.146Z,6.35
2019-03-16T10:37:52.109Z,6.37
2019-03-16T10:40:19.358Z,8.88
2019-03-16T10:42:46.662Z,6.78
2019-03-16T10:45:14.026Z,9.78
2019-03-16T10:47:41.053Z,8.85
2019-03-16T10:50:08.462Z,8.15
2019-03-16T10:52:35.489Z,6.55
2019-03-16T10:55:02.667Z,8.93
2019-03-16T10:57:30.315Z,8.30
2019-03-16T10:59:57.313Z,5.05
2019-03-16T11:02:24.650Z,8.40
2019-03-16T11:04:51.651Z,7.50
2019-03-16T11:07:19.009Z,5.83
2019-03-16T11:09:46.163Z,7.83
2019-03-16T11:12:13.240Z,4.20
2019-03-16T11:14:41.261Z,9.60
2019-03-16T11:17:08.737Z,7.00
2019-03-16T11:19:35.747Z,7.58
2019-03-16T11:22:02.739Z,3.27
2019-03-16T11:24:29.782Z,4.10
2019-03-16T11:26:56.930Z,5.35
2019-03-16T11:29:25.460Z,4.78
2019-03-16T11:31:52.451Z,5.95
2019-03-16T11:34:19.499Z,5.33
2019-03-16T11:36:46.506Z,2.47
2019-03-16T11:39:13.516Z,3.65
2019-03-16T11:41:40.753Z,4.03
2019-03-16T11:44:07.875Z,3.27
2019-03-16T11:46:35.245Z,4.80
2019-03-16T11:49:02.225Z,2.75
2019-03-16T11:51:29.271Z,3.77
2019-03-16T11:53:56.330Z,2.60
2019-03-16T11:56:23.430Z,2.30
2019-03-16T11:58:50.787Z,2.40
2019-03-16T12:01:18.176Z,2.65
2019-03-16T12:03:45.237Z,4.67
2019-03-16T12:06:12.531Z,4.60
2019-03-16T12:08:39.863Z,3.22
2019-03-16T12:11:07.024Z,1.67
2019-03-16T12:13:34.335Z,2.75
2019-03-16T12:16:01.971Z,2.80
2019-03-16T12:18:29.789Z,1.87
2019-03-16T12:20:56.966Z,1.70
2019-03-16T12:23:24.280Z,1.90
2019-03-16T12:25:51.394Z,1.07
2019-03-16T12:28:18.755Z,1.42
2019-03-16T12:30:45.905Z,2.80
2019-03-16T12:33:13.059Z,2.62
2019-03-16T12:35:40.332Z,2.35
2019-03-16T12:38:07.755Z,3.87
2019-03-16T12:40:34.881Z,1.52
2019-03-16T12:43:02.565Z,3.12
2019-03-16T12:45:29.749Z,2.75
2019-03-16T12:47:56.876Z,1.37
2019-03-16T12:50:24.319Z,1.20
2019-03-16T12:52:51.818Z,1.50
2019-03-16T12:55:20.564Z,1.50
2019-03-16T12:57:48.398Z,1.92
2019-03-16T13:00:15.960Z,0.75
2019-03-16T13:02:44.617Z,1.60
2019-03-16T13:05:11.846Z,1.20
2019-03-16T13:07:38.954Z,1.05
2019-03-16T13:10:08.891Z,1.67
2019-03-16T13:12:39.042Z,1.22
2019-03-16T13:15:05.880Z,1.40
2019-03-16T13:17:33.613Z,1.70
2019-03-16T13:20:01.383Z,0.98
2019-03-16T13:22:28.874Z,2.40
2019-03-16T13:24:56.334Z,2.35
2019-03-16T13:27:23.343Z,1.90
2019-03-16T13:29:58.880Z,1.27
2019-03-16T13:32:19.274Z,1.70
2019-03-16T13:34:46.730Z,1.22
2019-03-16T13:37:13.835Z,1.55
2019-03-16T13:39:41.029Z,1.92
2019-03-16T13:42:08.138Z,2.85
2019-03-16T13:44:35.261Z,1.42
2019-03-16T13:47:02.303Z,2.45
2019-03-16T13:49:29.396Z,1.42
2019-03-16T13:51:57.291Z,1.75
2019-03-16T13:54:24.638Z,1.32
2019-03-16T13:56:51.809Z,1.92
2019-03-16T13:59:19.252Z,1.42
2019-03-16T14:01:46.991Z,2.00
2019-03-16T14:04:14.027Z,2.22
2019-03-16T14:06:41.768Z,1.77
2019-03-16T14:09:09.415Z,1.55
2019-03-16T14:11:36.450Z,1.62
2019-03-16T14:14:03.572Z,2.50
2019-03-16T14:16:30.650Z,3.33
2019-03-16T14:18:58.177Z,1.95
2019-03-16T14:21:25.378Z,3.72
2019-03-16T14:23:52.657Z,2.92
2019-03-16T14:26:20.006Z,2.60
2019-03-16T14:28:47.223Z,3.80
2019-03-16T14:31:14.712Z,2.92
2019-03-16T14:33:41.795Z,3.12
2019-03-16T14:36:09.411Z,3.65
2019-03-16T14:38:37.082Z,3.08
2019-03-16T14:41:04.434Z,2.22
2019-03-16T14:43:35.363Z,3.08
2019-03-16T14:46:02.995Z,4.08
2019-03-16T14:48:30.039Z,2.80
2019-03-16T14:50:57.271Z,2.55
2019-03-16T14:53:24.414Z,2.95
2019-03-16T14:55:51.481Z,3.22
2019-03-16T14:58:19.663Z,2.58
2019-03-16T15:00:46.710Z,2.75
2019-03-16T15:03:13.946Z,3.42
2019-03-16T15:05:41.179Z,3.33
2019-03-16T15:08:08.578Z,3.17
2019-03-16T15:10:35.804Z,3.70
2019-03-16T15:13:02.991Z,3.90
2019-03-16T15:15:30.054Z,5.53
2019-03-16T15:17:57.265Z,5.92
2019-03-16T15:20:24.347Z,6.72
2019-03-16T15:22:53.499Z,8.18
2019-03-16T15:25:20.868Z,8.03
2019-03-16T15:27:48.027Z,10.05
2019-03-16T15:30:15.271Z,8.10
2019-03-16T15:32:42.421Z,8.40
2019-03-16T15:35:09.535Z,9.60
2019-03-16T15:37:36.864Z,9.85
2019-03-16T15:40:04.248Z,8.88
2019-03-16T15:42:31.511Z,8.48
2019-03-16T15:44:58.561Z,10.25
2019-03-16T15:47:25.693Z,8.88
2019-03-16T15:49:53.291Z,10.65
2019-03-16T15:52:20.326Z,9.48
2019-03-16T15:54:47.391Z,8.73
2019-03-16T15:57:14.473Z,8.70
2019-03-16T15:59:41.586Z,9.83
2019-03-16T16:02:08.850Z,11.60
2019-03-16T16:04:36.285Z,9.43
2019-03-16T16:07:03.601Z,10.98
2019-03-16T16:09:31.191Z,12.98
2019-03-16T16:11:58.453Z,9.63
2019-03-16T16:14:25.567Z,15.08
2019-03-16T16:16:52.578Z,20.10
2019-03-16T16:19:21.952Z,24.87
2019-03-16T16:21:49.272Z,22.00
2019-03-16T16:24:16.901Z,14.58
2019-03-16T16:26:43.974Z,16.95
2019-03-16T16:29:12.768Z,15.05
2019-03-16T16:31:39.984Z,14.65
2019-03-16T16:34:07.724Z,17.90
2019-03-16T16:36:34.941Z,15.05
2019-03-16T16:39:03.334Z,17.40
2019-03-16T16:41:30.684Z,13.15
2019-03-16T16:43:57.745Z,14.03
2019-03-16T16:46:25.987Z,15.15
2019-03-16T16:48:53.027Z,13.83
2019-03-16T16:51:20.547Z,14.85
2019-03-16T16:53:48.078Z,17.57
2019-03-16T16:56:15.462Z,13.70
2019-03-16T16:58:42.682Z,17.75
2019-03-16T17:01:10.039Z,15.28
2019-03-16T17:03:39.268Z,14.18
2019-03-16T17:06:06.909Z,12.90
2019-03-16T17:08:34.132Z,14.28
2019-03-16T17:11:02.469Z,11.85
2019-03-16T17:13:30.334Z,16.07
2019-03-16T17:15:58.761Z,13.30
2019-03-16T17:18:27.620Z,13.40
2019-03-16T17:20:54.757Z,12.40
2019-03-16T17:23:22.315Z,11.22
2019-03-16T17:25:49.858Z,14.18
2019-03-16T17:28:16.931Z,13.78
2019-03-16T17:30:44.091Z,13.40
2019-03-16T17:33:11.513Z,13.00
2019-03-16T17:35:38.540Z,18.12
2019-03-16T17:38:05.889Z,11.22
2019-03-16T17:40:33.035Z,15.93
2019-03-16T17:43:00.075Z,17.67
2019-03-16T17:45:27.458Z,12.45
2019-03-16T17:47:54.652Z,15.48
2019-03-16T17:50:22.251Z,9.18
2019-03-16T17:52:49.591Z,14.63
2019-03-16T17:55:16.930Z,13.00
2019-03-16T17:57:45.480Z,14.53
2019-03-16T18:00:13.098Z,8.55
2019-03-16T18:02:51.394Z,13.58
2019-03-16T18:05:10.489Z,14.18
2019-03-16T18:07:37.657Z,15.03
2019-03-16T18:10:04.933Z,13.55
2019-03-16T18:12:32.094Z,12.05
2019-03-16T18:14:59.185Z,10.70
2019-03-16T18:17:26.427Z,9.73
2019-03-16T18:19:53.772Z,8.70
2019-03-16T18:22:20.898Z,12.43
2019-03-16T18:24:48.591Z,12.15
2019-03-16T18:27:16.130Z,8.33
2019-03-16T18:29:43.236Z,10.30
2019-03-16T18:32:11.403Z,10.20
2019-03-16T18:34:38.415Z,9.60
2019-03-16T18:37:05.595Z,8.80
2019-03-16T18:39:32.716Z,10.43
2019-03-16T18:42:00.277Z,15.13
2019-03-16T18:44:27.814Z,13.22
2019-03-16T18:46:55.191Z,9.70
2019-03-16T18:49:22.291Z,6.95
2019-03-16T18:51:49.659Z,11.43
2019-03-16T18:54:17.254Z,8.65
2019-03-16T18:56:44.358Z,10.82
2019-03-16T18:59:11.721Z,9.20
2019-03-16T19:01:38.837Z,11.80
2019-03-16T19:04:06.207Z,11.73
2019-03-16T19:06:33.379Z,6.83
2019-03-16T19:09:00.570Z,11.22
2019-03-16T19:11:27.966Z,7.55
2019-03-16T19:13:55.169Z,8.70
2019-03-16T19:16:22.611Z,6.15
2019-03-16T19:18:49.735Z,7.22
2019-03-16T19:21:16.743Z,8.30
2019-03-16T19:23:43.860Z,5.55
2019-03-16T19:26:11.035Z,6.55
2019-03-16T19:28:38.152Z,9.13
2019-03-16T19:31:05.670Z,10.18
2019-03-16T19:33:32.699Z,8.88
2019-03-16T19:36:00.042Z,8.28
2019-03-16T19:38:28.194Z,7.47
2019-03-16T19:40:55.584Z,7.40
2019-03-16T19:43:23.791Z,8.43
2019-03-16T19:45:50.893Z,7.85
2019-03-16T19:48:18.314Z,8.95
2019-03-16T19:50:45.474Z,9.25
2019-03-16T19:53:12.716Z,5.67
2019-03-16T19:55:39.929Z,10.13
2019-03-16T19:58:06.952Z,6.92
2019-03-16T20:00:34.379Z,10.25
2019-03-16T20:03:02.613Z,7.85
2019-03-16T20:05:30.010Z,10.98
2019-03-16T20:07:57.108Z,11.53
2019-03-16T20:10:24.475Z,11.63
2019-03-16T20:12:53.187Z,11.33
2019-03-16T20:15:21.098Z,9.28
2019-03-16T20:17:48.350Z,7.03
2019-03-16T20:20:15.627Z,6.92
2019-03-16T20:22:43.863Z,10.25
2019-03-16T20:25:11.247Z,12.35
2019-03-16T20:27:38.524Z,13.30
2019-03-16T20:30:06.543Z,12.53
2019-03-16T20:32:33.613Z,10.88
2019-03-16T20:35:00.657Z,8.65
2019-03-16T20:37:27.810Z,9.55
2019-03-16T20:39:54.856Z,11.10
2019-03-16T20:42:22.022Z,9.00
2019-03-16T20:44:49.129Z,5.65
2019-03-16T20:47:16.469Z,9.15
2019-03-16T20:49:43.486Z,9.00
2019-03-16T20:52:10.511Z,5.80
2019-03-16T20:54:37.496Z,6.15
2019-03-16T20:57:04.563Z,7.87
2019-03-16T20:59:31.571Z,8.93
2019-03-16T21:01:58.640Z,9.15
2019-03-16T21:04:25.700Z,4.33
2019-03-16T21:06:55.968Z,8.45
2019-03-16T21:09:22.979Z,7.40
2019-03-16T21:11:49.990Z,8.60
2019-03-16T21:14:17.443Z,8.05
2019-03-16T21:16:44.849Z,9.30
2019-03-16T21:19:11.879Z,11.40
2019-03-16T21:21:39.329Z,12.78
2019-03-16T21:24:07.554Z,12.43
2019-03-16T21:26:35.098Z,9.75
2019-03-16T21:29:02.369Z,11.55
2019-03-16T21:31:29.620Z,12.82
2019-03-16T21:33:56.998Z,9.38
2019-03-16T21:36:24.030Z,10.28
2019-03-16T21:38:51.182Z,8.13
2019-03-16T21:41:18.642Z,8.35
2019-03-16T21:43:46.201Z,9.85
2019-03-16T21:46:14.388Z,13.25
2019-03-16T21:48:41.598Z,9.93
2019-03-16T21:51:08.729Z,10.58
2019-03-16T21:53:35.827Z,10.13
2019-03-16T21:56:03.662Z,12.35
2019-03-16T21:58:30.800Z,13.35
2019-03-16T22:00:58.002Z,8.00
2019-03-16T22:03:25.039Z,11.18
2019-03-16T22:05:52.160Z,10.55
2019-03-16T22:08:19.524Z,10.18
2019-03-16T22:10:46.691Z,6.60
2019-03-16T22:13:13.768Z,9.50
2019-03-16T22:15:40.907Z,6.92
2019-03-16T22:18:08.290Z,6.85
2019-03-16T22:20:35.275Z,12.20
2019-03-16T22:23:02.323Z,8.75
2019-03-16T22:25:29.655Z,7.65
2019-03-16T22:27:56.775Z,15.60
2019-03-16T22:30:23.889Z,8.43
2019-03-16T22:32:51.104Z,6.33
2019-03-16T22:35:18.414Z,4.85
2019-03-16T22:37:46.551Z,9.65
2019-03-16T22:40:13.639Z,7.97
2019-03-16T22:42:40.796Z,7.33
2019-03-16T22:45:08.138Z,7.85
2019-03-16T22:47:35.208Z,6.22
2019-03-16T22:50:02.341Z,7.17
2019-03-16T22:52:29.668Z,6.05
2019-03-16T22:54:57.143Z,5.28
2019-03-16T22:57:24.304Z,8.90
2019-03-16T22:59:51.334Z,6.65
2019-03-16T23:02:18.388Z,6.78
2019-03-16T23:04:46.125Z,7.33
2019-03-16T23:07:13.601Z,6.47
2019-03-16T23:09:41.361Z,5.60
2019-03-16T23:12:08.872Z,5.35
2019-03-16T23:14:36.998Z,6.22
2019-03-16T23:17:05.334Z,7.53
2019-03-16T23:19:32.730Z,5.08
2019-03-16T23:21:59.744Z,5.10
2019-03-16T23:24:26.734Z,5.92
2019-03-16T23:26:54.151Z,4.92
2019-03-16T23:29:21.436Z,6.40
2019-03-16T23:31:48.511Z,6.10
2019-03-16T23:34:19.338Z,10.50
2019-03-16T23:36:44.723Z,6.42
2019-03-16T23:39:11.815Z,5.83
2019-03-16T23:41:38.806Z,6.12
2019-03-16T23:44:05.958Z,8.93
2019-03-16T23:46:33.004Z,5.75
2019-03-16T23:49:00.272Z,7.85
2019-03-16T23:51:27.243Z,5.45
2019-03-16T23:53:54.229Z,7.10
2019-03-16T23:56:21.218Z,5.90
2019-03-16T23:58:48.646Z,4.83
